Aviation Digital Data Service (ADDS)

Output produced by METARs form (0013 UTC 25 November 2017)
found at http://www.aviationweather.gov/adds/metars/
 
METAR text: KLAR 242353Z AUTO 36007KT 10SM SCT070 03/01 A3002 RMK AO2 WSHFT 2240 SLP123 60000 T00280011 10128 20028 52019
Conditions at: KLAR (LARAMIE , WY, US) observed 2353 UTC 24 November 2017
Temperature: 2.8°C (37°F)
Dewpoint: 1.1°C (34°F) [RH = 89%]
Pressure (altimeter): 30.02 inches Hg (1016.7 mb)
[Sea-level pressure: 1012.3 mb]
Winds: from the N (360 degrees) at 8 MPH (7 knots; 3.6 m/s)
Visibility: 10 or more miles (16+ km)
Ceiling: at least 12,000 feet AGL
Clouds: scattered clouds at 7000 feet AGL
Weather: automated observation with no human augmentation;
there may or may not be significant weather present at this time